createdAt,value
2018-04-30T00:00:22.908Z,0
2018-04-30T00:01:02.617Z,0
2018-04-30T00:01:43.166Z,0
2018-04-30T00:02:23.698Z,0
2018-04-30T00:03:04.226Z,0
2018-04-30T00:03:45.406Z,0
2018-04-30T00:04:25.287Z,0
2018-04-30T00:05:05.822Z,0
2018-04-30T00:05:46.354Z,0
2018-04-30T00:06:26.884Z,0
2018-04-30T00:07:07.411Z,0
2018-04-30T00:07:47.935Z,0
2018-04-30T00:08:28.469Z,0
2018-04-30T00:09:09.004Z,0
2018-04-30T00:09:49.531Z,0
2018-04-30T00:10:30.063Z,0
2018-04-30T00:11:10.591Z,0
2018-04-30T00:11:51.125Z,0
2018-04-30T00:12:31.660Z,0
2018-04-30T00:13:12.184Z,0
2018-04-30T00:13:52.712Z,0
2018-04-30T00:14:33.246Z,0
2018-04-30T00:15:13.765Z,0
2018-04-30T00:15:54.297Z,0
2018-04-30T00:16:34.825Z,0
2018-04-30T00:17:15.355Z,0
2018-04-30T00:17:55.885Z,0
2018-04-30T00:18:36.413Z,0
2018-04-30T00:19:16.944Z,0
2018-04-30T00:19:57.493Z,0
2018-04-30T00:20:38.019Z,0
2018-04-30T00:21:18.552Z,0
2018-04-30T00:21:59.090Z,0
2018-04-30T00:22:39.616Z,0
2018-04-30T00:23:20.141Z,0
2018-04-30T00:24:00.667Z,0
2018-04-30T00:24:41.202Z,0
2018-04-30T00:25:21.737Z,0
2018-04-30T00:26:02.267Z,0
2018-04-30T00:26:42.800Z,0
2018-04-30T00:27:23.330Z,0
2018-04-30T00:28:03.865Z,0
2018-04-30T00:28:44.391Z,0
2018-04-30T00:29:24.926Z,0
2018-04-30T00:30:05.446Z,0
2018-04-30T00:30:45.974Z,0
2018-04-30T00:31:26.503Z,0
2018-04-30T00:32:07.040Z,0
2018-04-30T00:32:47.577Z,0
2018-04-30T00:33:28.111Z,0
2018-04-30T00:34:08.638Z,0
2018-04-30T00:34:49.170Z,0
2018-04-30T00:35:29.707Z,0
2018-04-30T00:36:10.237Z,0
2018-04-30T00:36:50.768Z,0
2018-04-30T00:37:31.297Z,0
2018-04-30T00:38:11.835Z,0
2018-04-30T00:38:52.377Z,0
2018-04-30T00:39:32.897Z,0
2018-04-30T00:40:13.431Z,0
2018-04-30T00:40:53.957Z,0
2018-04-30T00:41:34.482Z,0
2018-04-30T00:42:15.012Z,0
2018-04-30T00:42:55.548Z,0
2018-04-30T00:43:36.079Z,0
2018-04-30T00:44:16.607Z,0
2018-04-30T00:44:57.135Z,0
2018-04-30T00:45:38.178Z,0
2018-04-30T00:46:19.423Z,0
2018-04-30T00:46:59.225Z,0
2018-04-30T00:47:39.755Z,0
2018-04-30T00:48:20.285Z,0
2018-04-30T00:49:00.818Z,0
2018-04-30T00:49:41.335Z,0
2018-04-30T00:50:21.865Z,0
2018-04-30T00:51:02.394Z,0
2018-04-30T00:51:42.921Z,0
2018-04-30T00:52:23.447Z,0
2018-04-30T00:53:03.975Z,0
2018-04-30T00:53:44.502Z,0
2018-04-30T00:54:25.034Z,0
2018-04-30T00:55:05.551Z,0
2018-04-30T00:55:46.080Z,0
2018-04-30T00:56:26.600Z,0
2018-04-30T00:57:07.124Z,0
2018-04-30T00:57:47.654Z,0
2018-04-30T00:58:28.181Z,0
2018-04-30T00:59:08.705Z,0
2018-04-30T00:59:49.238Z,0
2018-04-30T01:00:29.772Z,0
2018-04-30T01:01:10.297Z,0
2018-04-30T01:01:50.820Z,0
2018-04-30T01:02:31.355Z,0
2018-04-30T01:03:11.884Z,0
2018-04-30T01:03:52.412Z,0
2018-04-30T01:04:32.947Z,0
2018-04-30T01:05:13.470Z,0
2018-04-30T01:05:53.996Z,0
2018-04-30T01:06:34.528Z,0
2018-04-30T01:07:15.037Z,0
2018-04-30T01:07:55.563Z,0
2018-04-30T01:08:37.423Z,0
2018-04-30T01:09:17.297Z,0
2018-04-30T01:09:57.826Z,0
2018-04-30T01:10:38.357Z,0
2018-04-30T01:11:18.906Z,0
2018-04-30T01:11:59.441Z,0
2018-04-30T01:12:39.967Z,0
2018-04-30T01:13:20.490Z,0
2018-04-30T01:14:01.692Z,0
2018-04-30T01:14:42.225Z,0
2018-04-30T01:15:22.756Z,0
2018-04-30T01:16:03.283Z,0
2018-04-30T01:16:43.815Z,0
2018-04-30T01:17:24.348Z,0
2018-04-30T01:18:04.875Z,0
2018-04-30T01:18:45.405Z,0
2018-04-30T01:19:25.932Z,0
2018-04-30T01:20:06.458Z,0
2018-04-30T01:20:46.987Z,0
2018-04-30T01:21:27.497Z,0
2018-04-30T01:22:08.028Z,0
2018-04-30T01:22:48.555Z,0
2018-04-30T01:23:29.693Z,0
2018-04-30T01:24:10.224Z,0
2018-04-30T01:24:51.935Z,0
2018-04-30T01:25:31.910Z,0
2018-04-30T01:26:12.437Z,0
2018-04-30T01:26:52.962Z,0
2018-04-30T01:27:33.484Z,0
2018-04-30T01:28:14.012Z,0
2018-04-30T01:28:54.544Z,0
2018-04-30T01:29:35.066Z,0
2018-04-30T01:30:15.593Z,0
2018-04-30T01:30:56.123Z,0
2018-04-30T01:31:37.428Z,0
2018-04-30T01:32:17.189Z,0
2018-04-30T01:32:57.716Z,0
2018-04-30T01:33:38.246Z,0
2018-04-30T01:34:18.770Z,0
2018-04-30T01:34:59.298Z,0
2018-04-30T01:35:39.828Z,0
2018-04-30T01:36:20.362Z,0
2018-04-30T01:37:00.891Z,0
2018-04-30T01:37:41.420Z,0
2018-04-30T01:38:21.975Z,0
2018-04-30T01:39:02.470Z,0
2018-04-30T01:39:42.993Z,0
2018-04-30T01:40:23.508Z,0
2018-04-30T01:41:04.933Z,0
2018-04-30T01:41:44.557Z,0
2018-04-30T01:42:25.086Z,0
2018-04-30T01:43:05.618Z,0
2018-04-30T01:43:46.144Z,0
2018-04-30T01:44:26.675Z,0
2018-04-30T01:45:07.202Z,0
2018-04-30T01:45:47.733Z,0
2018-04-30T01:46:28.269Z,4
2018-04-30T01:47:08.782Z,4
2018-04-30T01:47:49.295Z,4
2018-04-30T01:48:29.840Z,0
2018-04-30T01:49:10.377Z,0
2018-04-30T01:49:50.915Z,0
2018-04-30T01:50:31.436Z,0
2018-04-30T01:51:12.611Z,0
2018-04-30T01:51:53.115Z,0
2018-04-30T01:52:33.634Z,0
2018-04-30T01:53:14.165Z,0
2018-04-30T01:53:54.695Z,0
2018-04-30T01:54:35.222Z,0
2018-04-30T01:55:15.751Z,0
2018-04-30T01:55:56.517Z,0
2018-04-30T01:56:38.562Z,0
2018-04-30T01:57:19.088Z,0
2018-04-30T01:57:59.616Z,0
2018-04-30T01:58:40.936Z,0
2018-04-30T01:59:20.676Z,0
2018-04-30T02:00:01.204Z,0
2018-04-30T02:00:41.738Z,0
2018-04-30T02:01:23.194Z,0
2018-04-30T02:02:03.724Z,0
2018-04-30T02:02:45.437Z,0
2018-04-30T02:03:24.768Z,0
2018-04-30T02:04:05.294Z,0
2018-04-30T02:04:47.440Z,0
2018-04-30T02:05:28.560Z,0
2018-04-30T02:06:09.079Z,0
2018-04-30T02:06:49.607Z,0
2018-04-30T02:07:30.136Z,0
2018-04-30T02:08:10.665Z,0
2018-04-30T02:08:51.185Z,0
2018-04-30T02:09:31.717Z,0
2018-04-30T02:10:12.250Z,0
2018-04-30T02:10:52.763Z,0
2018-04-30T02:11:33.798Z,0
2018-04-30T02:12:14.312Z,0
2018-04-30T02:12:54.841Z,0
2018-04-30T02:13:35.370Z,0
2018-04-30T02:14:16.838Z,0
2018-04-30T02:14:57.370Z,0
2018-04-30T02:15:37.906Z,0
2018-04-30T02:16:18.436Z,0
2018-04-30T02:16:58.950Z,0
2018-04-30T02:17:39.489Z,0
2018-04-30T02:18:20.016Z,0
2018-04-30T02:19:00.546Z,0
2018-04-30T02:19:41.071Z,0
2018-04-30T02:20:21.602Z,0
2018-04-30T02:21:02.137Z,0
2018-04-30T02:21:42.664Z,0
2018-04-30T02:22:23.199Z,0
2018-04-30T02:23:03.732Z,0
2018-04-30T02:23:44.264Z,0
2018-04-30T02:24:24.792Z,0
2018-04-30T02:25:05.318Z,0
2018-04-30T02:25:45.847Z,0
2018-04-30T02:26:26.366Z,0
2018-04-30T02:27:06.881Z,0
2018-04-30T02:27:47.418Z,0
2018-04-30T02:28:27.949Z,0
2018-04-30T02:29:08.481Z,0
2018-04-30T02:29:49.007Z,0
2018-04-30T02:30:29.531Z,0
2018-04-30T02:31:10.066Z,0
2018-04-30T02:31:50.618Z,0
2018-04-30T02:32:31.146Z,0
2018-04-30T02:33:11.674Z,0
2018-04-30T02:33:52.200Z,0
2018-04-30T02:34:32.731Z,0
2018-04-30T02:35:13.265Z,0
2018-04-30T02:35:54.038Z,0
2018-04-30T02:36:34.568Z,0
2018-04-30T02:37:15.098Z,0
2018-04-30T02:37:55.627Z,0
2018-04-30T02:38:36.156Z,0
2018-04-30T02:39:16.685Z,0
2018-04-30T02:39:57.222Z,0
2018-04-30T02:40:37.732Z,0
2018-04-30T02:41:18.254Z,0
2018-04-30T02:41:58.783Z,0
2018-04-30T02:42:39.319Z,0
2018-04-30T02:43:19.849Z,0
2018-04-30T02:44:00.376Z,0
2018-04-30T02:44:40.907Z,0
2018-04-30T02:45:21.437Z,0
2018-04-30T02:46:01.966Z,0
2018-04-30T02:46:42.495Z,0
2018-04-30T02:47:23.018Z,0
2018-04-30T02:48:03.551Z,0
2018-04-30T02:48:44.084Z,0
2018-04-30T02:49:24.609Z,0
2018-04-30T02:50:05.139Z,0
2018-04-30T02:50:45.652Z,0
2018-04-30T02:51:26.182Z,4
2018-04-30T02:52:06.708Z,0
2018-04-30T02:52:47.231Z,0
2018-04-30T02:53:27.753Z,0
2018-04-30T02:54:08.323Z,0
2018-04-30T02:54:48.815Z,0
2018-04-30T02:55:29.323Z,0
2018-04-30T02:56:09.859Z,0
2018-04-30T02:56:50.385Z,0
2018-04-30T02:57:33.745Z,0
2018-04-30T02:58:14.279Z,0
2018-04-30T02:58:54.814Z,0
2018-04-30T02:59:35.319Z,0
2018-04-30T03:00:15.845Z,0
2018-04-30T03:00:56.368Z,0
2018-04-30T03:01:37.048Z,0
2018-04-30T03:02:17.751Z,0
2018-04-30T03:02:58.271Z,0
2018-04-30T03:03:38.805Z,0
2018-04-30T03:04:19.360Z,0
2018-04-30T03:04:59.895Z,0
2018-04-30T03:05:40.424Z,0
2018-04-30T03:06:21.112Z,0
2018-04-30T03:07:01.656Z,0
2018-04-30T03:07:42.311Z,0
2018-04-30T03:08:23.462Z,0
2018-04-30T03:09:04.491Z,0
2018-04-30T03:09:45.850Z,0
2018-04-30T03:10:26.417Z,0
2018-04-30T03:11:07.078Z,0
2018-04-30T03:11:47.647Z,0
2018-04-30T03:12:28.952Z,0
2018-04-30T03:13:08.692Z,0
2018-04-30T03:13:49.223Z,0
2018-04-30T03:14:29.758Z,0
2018-04-30T03:15:10.290Z,0
2018-04-30T03:15:51.450Z,0
2018-04-30T03:16:31.337Z,0
2018-04-30T03:17:11.865Z,0
2018-04-30T03:17:52.396Z,0
2018-04-30T03:18:32.925Z,0
2018-04-30T03:19:13.470Z,0
2018-04-30T03:19:53.994Z,0
2018-04-30T03:20:34.518Z,0
2018-04-30T03:21:15.044Z,0
2018-04-30T03:21:55.607Z,0
2018-04-30T03:22:36.096Z,0
2018-04-30T03:23:16.631Z,0
2018-04-30T03:23:57.159Z,0
2018-04-30T03:24:37.689Z,0
2018-04-30T03:25:18.221Z,0
2018-04-30T03:25:58.737Z,0
2018-04-30T03:26:39.265Z,0
2018-04-30T03:27:19.824Z,0
2018-04-30T03:28:00.335Z,0
2018-04-30T03:28:40.866Z,0
2018-04-30T03:29:21.636Z,0
2018-04-30T03:30:02.065Z,8
2018-04-30T03:30:42.619Z,4
2018-04-30T03:31:23.116Z,4
2018-04-30T03:32:03.763Z,0
2018-04-30T03:32:44.957Z,0
2018-04-30T03:33:25.522Z,0
2018-04-30T03:34:06.076Z,0
2018-04-30T03:34:46.609Z,0
2018-04-30T03:35:27.134Z,0
2018-04-30T03:36:07.665Z,4
2018-04-30T03:36:48.178Z,4
2018-04-30T03:37:28.712Z,4
2018-04-30T03:38:09.241Z,4
2018-04-30T03:38:49.772Z,4
2018-04-30T03:39:30.297Z,0
2018-04-30T03:40:10.830Z,16
2018-04-30T03:40:52.470Z,16
2018-04-30T03:41:33.021Z,16
2018-04-30T03:42:13.550Z,16
2018-04-30T03:42:54.081Z,12
2018-04-30T03:43:34.610Z,12
2018-04-30T03:44:15.134Z,12
2018-04-30T03:44:55.659Z,20
2018-04-30T03:45:36.194Z,20
2018-04-30T03:46:16.723Z,20
2018-04-30T03:46:57.247Z,24
2018-04-30T03:47:37.777Z,20
2018-04-30T03:48:18.312Z,24
2018-04-30T03:48:58.830Z,24
2018-04-30T03:49:39.395Z,28
2018-04-30T03:50:19.884Z,24
2018-04-30T03:51:00.405Z,24
2018-04-30T03:51:40.928Z,24
2018-04-30T03:52:21.456Z,24
2018-04-30T03:53:01.985Z,28
2018-04-30T03:53:42.531Z,28
2018-04-30T03:54:23.052Z,16
2018-04-30T03:55:03.579Z,24
2018-04-30T03:55:44.490Z,20
2018-04-30T03:56:25.025Z,24
2018-04-30T03:57:05.564Z,28
2018-04-30T03:57:46.093Z,28
2018-04-30T03:58:26.615Z,32
2018-04-30T03:59:07.146Z,32
2018-04-30T03:59:47.621Z,32
2018-04-30T04:00:28.130Z,28
2018-04-30T04:01:08.669Z,28
2018-04-30T04:01:49.196Z,24
2018-04-30T04:02:29.721Z,20
2018-04-30T04:03:10.336Z,20
2018-04-30T04:06:44.100Z,24
2018-04-30T04:07:24.627Z,24
2018-04-30T04:08:05.158Z,28
2018-04-30T04:08:45.691Z,28
2018-04-30T04:09:26.214Z,32
2018-04-30T04:10:06.732Z,32
2018-04-30T04:10:47.262Z,36
2018-04-30T04:11:27.800Z,32
2018-04-30T04:12:08.332Z,32
2018-04-30T04:12:51.551Z,36
2018-04-30T04:13:32.079Z,40
2018-04-30T04:14:12.598Z,44
2018-04-30T04:14:53.131Z,44
2018-04-30T04:15:33.650Z,48
2018-04-30T04:16:15.060Z,44
2018-04-30T04:16:55.588Z,44
2018-04-30T04:17:36.116Z,44
2018-04-30T04:18:16.642Z,56
2018-04-30T04:18:57.159Z,64
2018-04-30T04:19:37.677Z,68
2018-04-30T04:20:18.202Z,72
2018-04-30T04:20:58.726Z,72
2018-04-30T04:21:39.256Z,68
2018-04-30T04:22:20.415Z,68
2018-04-30T04:23:00.293Z,68
2018-04-30T04:23:41.407Z,76
2018-04-30T04:24:21.910Z,80
2018-04-30T04:25:01.856Z,80
2018-04-30T04:25:42.908Z,80
2018-04-30T04:26:22.909Z,80
2018-04-30T04:27:03.438Z,80
2018-04-30T04:27:44.535Z,80
2018-04-30T04:28:25.911Z,92
2018-04-30T04:29:06.432Z,100
2018-04-30T04:29:46.901Z,112
2018-04-30T04:30:27.426Z,120
2018-04-30T04:31:07.991Z,124
2018-04-30T04:31:49.198Z,136
2018-04-30T04:32:29.729Z,144
2018-04-30T04:33:10.259Z,152
2018-04-30T04:33:50.798Z,160
2018-04-30T04:34:31.327Z,156
2018-04-30T04:35:11.859Z,152
2018-04-30T04:35:52.386Z,156
2018-04-30T04:36:32.927Z,156
2018-04-30T04:37:13.458Z,160
2018-04-30T04:37:53.995Z,168
2018-04-30T04:38:34.518Z,180
2018-04-30T04:39:15.038Z,208
2018-04-30T04:39:55.567Z,252
2018-04-30T04:40:36.102Z,300
2018-04-30T04:41:16.637Z,344
2018-04-30T04:41:57.165Z,388
2018-04-30T04:42:37.685Z,420
2018-04-30T04:43:18.201Z,472
2018-04-30T04:43:58.738Z,544
2018-04-30T04:44:39.269Z,632
2018-04-30T04:45:19.791Z,688
2018-04-30T04:46:00.321Z,676
2018-04-30T04:46:40.853Z,652
2018-04-30T04:47:21.372Z,616
2018-04-30T04:48:01.913Z,612
2018-04-30T04:48:42.429Z,652
2018-04-30T04:49:22.956Z,700
2018-04-30T04:50:03.495Z,628
2018-04-30T04:50:44.023Z,560
2018-04-30T04:51:24.543Z,532
2018-04-30T04:52:05.074Z,516
2018-04-30T04:52:45.597Z,488
2018-04-30T04:53:26.122Z,464
2018-04-30T04:54:06.642Z,448
2018-04-30T04:54:47.171Z,464
2018-04-30T04:55:27.696Z,504
2018-04-30T04:56:08.226Z,564
2018-04-30T04:56:48.751Z,632
2018-04-30T04:57:29.274Z,696
2018-04-30T04:58:09.808Z,720
2018-04-30T04:58:50.345Z,684
2018-04-30T04:59:30.869Z,620
2018-04-30T05:00:11.397Z,576
2018-04-30T05:00:51.927Z,584
2018-04-30T05:01:32.455Z,604
2018-04-30T05:02:13.913Z,592
2018-04-30T05:02:53.513Z,580
2018-04-30T05:03:34.920Z,564
2018-04-30T05:04:15.446Z,568
2018-04-30T05:04:55.972Z,596
2018-04-30T05:05:36.504Z,584
2018-04-30T05:06:17.042Z,584
2018-04-30T05:06:57.576Z,580
2018-04-30T05:07:38.142Z,580
2018-04-30T05:08:18.621Z,568
2018-04-30T05:08:59.152Z,544
2018-04-30T05:09:39.681Z,492
2018-04-30T05:10:20.207Z,440
2018-04-30T05:11:00.842Z,416
2018-04-30T05:11:41.255Z,404
2018-04-30T05:12:21.807Z,404
2018-04-30T05:13:02.917Z,420
2018-04-30T05:13:42.861Z,436
2018-04-30T05:14:23.381Z,460
2018-04-30T05:15:03.910Z,496
2018-04-30T05:15:44.444Z,540
2018-04-30T05:16:24.978Z,584
2018-04-30T05:17:05.502Z,608
2018-04-30T05:17:46.030Z,620
2018-04-30T05:18:26.564Z,624
2018-04-30T05:19:07.097Z,612
2018-04-30T05:19:48.413Z,584
2018-04-30T05:20:28.135Z,556
2018-04-30T05:21:08.664Z,532
2018-04-30T05:21:49.185Z,528
2018-04-30T05:22:29.705Z,532
2018-04-30T05:23:10.233Z,548
2018-04-30T05:23:51.573Z,544
2018-04-30T05:24:32.107Z,528
2018-04-30T05:25:12.640Z,512
2018-04-30T05:25:53.155Z,512
2018-04-30T05:26:33.683Z,532
2018-04-30T05:27:14.219Z,560
2018-04-30T05:27:54.739Z,596
2018-04-30T05:28:35.265Z,636
2018-04-30T05:29:15.797Z,680
2018-04-30T05:29:56.321Z,724
2018-04-30T05:30:36.840Z,764
2018-04-30T05:31:17.361Z,780
2018-04-30T05:31:57.891Z,772
2018-04-30T05:32:38.425Z,748
2018-04-30T05:33:18.945Z,720
2018-04-30T05:33:59.542Z,700
2018-04-30T05:34:40.064Z,700
2018-04-30T05:35:20.586Z,740
2018-04-30T05:36:01.115Z,828
2018-04-30T05:36:42.416Z,916
2018-04-30T05:37:22.172Z,988
2018-04-30T05:38:02.706Z,1016
2018-04-30T05:38:43.501Z,1004
2018-04-30T05:39:24.919Z,976
2018-04-30T05:40:04.544Z,952
2018-04-30T05:40:45.069Z,948
2018-04-30T05:41:25.678Z,932
2018-04-30T05:42:06.137Z,908
2018-04-30T05:42:46.659Z,888
2018-04-30T05:43:27.181Z,888
2018-04-30T05:44:07.708Z,908
2018-04-30T05:44:48.241Z,936
2018-04-30T05:45:28.761Z,952
2018-04-30T05:46:09.289Z,928
2018-04-30T05:46:49.812Z,848
2018-04-30T05:47:30.341Z,740
2018-04-30T05:48:10.859Z,636
2018-04-30T05:48:51.380Z,556
2018-04-30T05:49:31.909Z,508
2018-04-30T05:50:12.443Z,504
2018-04-30T05:50:52.982Z,520
2018-04-30T05:51:33.505Z,592
2018-04-30T05:52:14.024Z,712
2018-04-30T05:52:55.425Z,948
2018-04-30T05:53:35.034Z,1164
2018-04-30T05:54:15.558Z,1404
2018-04-30T05:54:56.078Z,1632
2018-04-30T05:55:36.643Z,1804
2018-04-30T05:56:17.173Z,1836
2018-04-30T05:56:57.666Z,1700
2018-04-30T05:57:38.166Z,1500
2018-04-30T05:58:18.687Z,1332
2018-04-30T05:58:59.192Z,1200
2018-04-30T05:59:39.684Z,1132
2018-04-30T06:00:20.187Z,1100
2018-04-30T06:01:00.683Z,1088
2018-04-30T06:01:41.183Z,1084
2018-04-30T06:02:21.689Z,1100
2018-04-30T06:03:02.186Z,1080
2018-04-30T06:03:42.680Z,1036
2018-04-30T06:04:23.215Z,1004
2018-04-30T06:05:03.735Z,1016
2018-04-30T06:05:44.225Z,1100
2018-04-30T06:06:24.718Z,1236
2018-04-30T06:07:05.212Z,1432
2018-04-30T06:07:45.739Z,1632
2018-04-30T06:08:26.277Z,1776
2018-04-30T06:09:06.759Z,1844
2018-04-30T06:09:47.245Z,1944
2018-04-30T06:10:27.744Z,2140
2018-04-30T06:11:09.282Z,2436
2018-04-30T06:11:49.741Z,2776
2018-04-30T06:12:30.232Z,3144
2018-04-30T06:13:10.768Z,3284
2018-04-30T06:13:51.275Z,3136
2018-04-30T06:14:31.774Z,2940
2018-04-30T06:15:12.329Z,2792
2018-04-30T06:15:52.762Z,2736
2018-04-30T06:16:33.238Z,2724
2018-04-30T06:17:13.711Z,2700
2018-04-30T06:17:54.228Z,2640
2018-04-30T06:18:34.679Z,2532
2018-04-30T06:19:15.880Z,2396
2018-04-30T06:19:56.400Z,2288
2018-04-30T06:20:36.877Z,2220
2018-04-30T06:21:17.347Z,2208
2018-04-30T06:21:57.853Z,2236
2018-04-30T06:22:38.379Z,2260
2018-04-30T06:23:18.872Z,2240
2018-04-30T06:23:59.323Z,2196
2018-04-30T06:24:39.821Z,2152
2018-04-30T06:25:20.358Z,2136
2018-04-30T06:26:00.810Z,2172
2018-04-30T06:26:41.364Z,2272
2018-04-30T06:27:21.768Z,2428
2018-04-30T06:28:02.286Z,2616
2018-04-30T06:28:42.764Z,2816
2018-04-30T06:29:23.925Z,3036
2018-04-30T06:30:03.811Z,3292
2018-04-30T06:30:45.803Z,3704
2018-04-30T06:31:26.304Z,4188
2018-04-30T06:32:06.791Z,4408
2018-04-30T06:32:47.331Z,4260
2018-04-30T06:33:27.840Z,3868
2018-04-30T06:34:08.353Z,3504
2018-04-30T06:34:48.858Z,3192
2018-04-30T06:35:29.357Z,2984
2018-04-30T06:36:09.861Z,2864
2018-04-30T06:36:50.356Z,2760
2018-04-30T06:37:30.857Z,2648
2018-04-30T06:38:11.352Z,2548
2018-04-30T06:38:51.846Z,2444
2018-04-30T06:39:32.343Z,2340
2018-04-30T06:40:14.568Z,2264
2018-04-30T06:40:55.045Z,2256
2018-04-30T06:41:35.526Z,2288
2018-04-30T06:42:16.602Z,2272
2018-04-30T06:42:57.806Z,2192
2018-04-30T06:43:38.315Z,2112
2018-04-30T06:44:18.800Z,2100
2018-04-30T06:44:59.261Z,2076
2018-04-30T06:45:39.767Z,2064
2018-04-30T06:46:20.263Z,2120
2018-04-30T06:47:00.753Z,2276
2018-04-30T06:47:41.246Z,2316
2018-04-30T06:48:21.766Z,2288
2018-04-30T06:49:02.217Z,2348
2018-04-30T06:49:42.794Z,2452
2018-04-30T06:50:23.220Z,2500
2018-04-30T06:51:03.705Z,2632
2018-04-30T06:51:44.228Z,2752
2018-04-30T06:52:25.928Z,2872
2018-04-30T06:53:05.746Z,3036
2018-04-30T06:53:46.937Z,3212
2018-04-30T06:54:26.754Z,3284
2018-04-30T06:55:07.243Z,3292
2018-04-30T06:55:47.968Z,3152
2018-04-30T06:56:28.463Z,3012
2018-04-30T06:57:08.979Z,2624
2018-04-30T06:57:49.473Z,2404
2018-04-30T06:58:30.012Z,2436
2018-04-30T06:59:10.465Z,2608
2018-04-30T06:59:50.940Z,2752
2018-04-30T07:00:31.474Z,2876
2018-04-30T07:01:11.941Z,2716
2018-04-30T07:01:52.468Z,2440
2018-04-30T07:02:32.955Z,2276
2018-04-30T07:03:13.426Z,2284
2018-04-30T07:03:53.931Z,2052
2018-04-30T07:04:34.397Z,1980
2018-04-30T07:05:14.901Z,1992
2018-04-30T07:05:55.382Z,2040
2018-04-30T07:06:35.882Z,2012
2018-04-30T07:07:16.400Z,1792
2018-04-30T07:07:56.897Z,1792
2018-04-30T07:08:37.399Z,1880
2018-04-30T07:09:18.063Z,1816
2018-04-30T07:09:58.393Z,1744
2018-04-30T07:10:38.902Z,1796
2018-04-30T07:11:19.372Z,1980
2018-04-30T07:12:00.372Z,1816
2018-04-30T07:12:40.870Z,1740
2018-04-30T07:13:21.365Z,1672
2018-04-30T07:14:01.872Z,1528
2018-04-30T07:14:42.353Z,1372
2018-04-30T07:15:22.858Z,1368
2018-04-30T07:16:03.376Z,1540
2018-04-30T07:16:43.885Z,1608
2018-04-30T07:17:24.427Z,1644
2018-04-30T07:18:04.925Z,1624
2018-04-30T07:18:45.383Z,1652
2018-04-30T07:19:25.896Z,1632
2018-04-30T07:20:06.446Z,1612
2018-04-30T07:20:46.966Z,1604
2018-04-30T07:21:27.432Z,1624
2018-04-30T07:22:07.913Z,1676
2018-04-30T07:22:48.384Z,1764
2018-04-30T07:23:28.883Z,1852
2018-04-30T07:24:09.377Z,1820
2018-04-30T07:24:49.895Z,1872
2018-04-30T07:25:30.378Z,1940
2018-04-30T07:26:10.896Z,1996
2018-04-30T07:26:51.383Z,2160
2018-04-30T07:27:31.883Z,2352
2018-04-30T07:28:12.408Z,2480
2018-04-30T07:28:52.870Z,2652
2018-04-30T07:29:33.352Z,2812
2018-04-30T07:30:13.874Z,2976
2018-04-30T07:30:54.343Z,3180
2018-04-30T07:31:34.833Z,3344
2018-04-30T07:32:15.352Z,3556
2018-04-30T07:32:55.868Z,3820
2018-04-30T07:33:36.337Z,4092
2018-04-30T07:34:17.396Z,4612
2018-04-30T07:34:57.917Z,5520
2018-04-30T07:35:38.398Z,6740
2018-04-30T07:36:18.920Z,7976
2018-04-30T07:36:59.936Z,9316
2018-04-30T07:37:40.520Z,10636
2018-04-30T07:38:21.004Z,11616
2018-04-30T07:39:01.538Z,12060
2018-04-30T07:39:42.014Z,12640
2018-04-30T07:40:22.530Z,13608
2018-04-30T07:41:02.988Z,13740
2018-04-30T07:41:43.459Z,13168
2018-04-30T07:42:23.944Z,12416
2018-04-30T07:43:04.462Z,11772
2018-04-30T07:43:44.959Z,11320
2018-04-30T07:44:25.458Z,11704
2018-04-30T07:45:05.926Z,17024
2018-04-30T07:45:46.412Z,21664
2018-04-30T07:46:26.907Z,22688
2018-04-30T07:47:07.369Z,34176
2018-04-30T07:47:47.903Z,29152
2018-04-30T07:48:28.355Z,26784
2018-04-30T07:49:08.932Z,23424
2018-04-30T07:49:49.338Z,19488
2018-04-30T07:50:29.848Z,17792
2018-04-30T07:51:10.323Z,15776
2018-04-30T07:51:50.830Z,16480
2018-04-30T07:52:31.323Z,24384
2018-04-30T07:53:11.811Z,17728
2018-04-30T07:53:52.337Z,17120
2018-04-30T07:54:32.875Z,17632
2018-04-30T07:55:13.329Z,18880
2018-04-30T07:55:53.806Z,17792
2018-04-30T07:56:34.286Z,19264
2018-04-30T07:57:14.814Z,14756
2018-04-30T07:57:55.258Z,13880
2018-04-30T07:58:35.745Z,14544
2018-04-30T07:59:16.280Z,14680
2018-04-30T07:59:56.796Z,14168
2018-04-30T08:00:37.288Z,19392
2018-04-30T08:01:17.806Z,19616
2018-04-30T08:01:58.275Z,17632
2018-04-30T08:02:38.849Z,45856
2018-04-30T08:03:19.238Z,25120
2018-04-30T08:03:59.737Z,22432
2018-04-30T08:04:40.279Z,54944
2018-04-30T08:05:20.796Z,72320
2018-04-30T08:06:01.301Z,25152
2018-04-30T08:06:41.814Z,20800
2018-04-30T08:07:22.342Z,74784
2018-04-30T08:08:02.809Z,69792
2018-04-30T08:08:43.306Z,69344
2018-04-30T08:09:23.847Z,52320
2018-04-30T08:10:04.328Z,61888
2018-04-30T08:10:44.813Z,59296
2018-04-30T08:11:25.299Z,58464
2018-04-30T08:12:06.721Z,62752
2018-04-30T08:12:47.224Z,59488
2018-04-30T08:13:27.737Z,60448
2018-04-30T08:14:08.249Z,53280
2018-04-30T08:14:48.794Z,57504
2018-04-30T08:15:29.313Z,63520
2018-04-30T08:16:09.845Z,67520
2018-04-30T08:16:50.383Z,66080
2018-04-30T08:17:30.923Z,67776
2018-04-30T08:18:11.466Z,70272
2018-04-30T08:18:52.006Z,69856
2018-04-30T08:19:32.543Z,46432
2018-04-30T08:20:13.089Z,79200
2018-04-30T08:20:53.621Z,26624
2018-04-30T08:21:34.236Z,80416
2018-04-30T08:22:14.698Z,36928
2018-04-30T08:22:55.234Z,74912
2018-04-30T08:23:35.776Z,36064
2018-04-30T08:24:16.320Z,18944
2018-04-30T08:24:57.615Z,28992
2018-04-30T08:25:38.150Z,48960
2018-04-30T08:26:18.693Z,15808
2018-04-30T08:26:59.234Z,60640
2018-04-30T08:27:39.777Z,58272
2018-04-30T08:28:20.307Z,12396
2018-04-30T08:29:00.847Z,20640
2018-04-30T08:29:41.391Z,31680
2018-04-30T08:30:21.929Z,56800
2018-04-30T08:31:02.471Z,60320
2018-04-30T08:31:43.016Z,18176
2018-04-30T08:32:23.556Z,24544
2018-04-30T08:33:04.426Z,19584
2018-04-30T08:33:44.973Z,58592
2018-04-30T08:34:25.545Z,22304
2018-04-30T08:35:06.068Z,14712
2018-04-30T08:35:46.614Z,17664
2018-04-30T08:36:27.161Z,61184
2018-04-30T08:37:07.689Z,61792
2018-04-30T08:37:48.231Z,60128
2018-04-30T08:38:28.772Z,68928
2018-04-30T08:39:09.310Z,52160
2018-04-30T08:39:49.854Z,38528
2018-04-30T08:40:30.586Z,69024
2018-04-30T08:41:12.583Z,15872
2018-04-30T08:41:53.095Z,76448
2018-04-30T08:42:33.627Z,17088
2018-04-30T08:43:14.169Z,18624
2018-04-30T08:43:54.699Z,12808
2018-04-30T08:44:35.241Z,13808
2018-04-30T08:45:15.782Z,75680
2018-04-30T08:45:56.323Z,73984
2018-04-30T08:46:36.867Z,17088
2018-04-30T08:47:18.969Z,14260
2018-04-30T08:48:00.095Z,12648
2018-04-30T08:48:40.638Z,12868
2018-04-30T08:49:21.179Z,19424
2018-04-30T08:50:01.716Z,25312
2018-04-30T08:50:42.246Z,19040
2018-04-30T08:51:22.785Z,12856
2018-04-30T08:52:03.336Z,20032
2018-04-30T08:52:43.873Z,26432
2018-04-30T08:53:24.410Z,13784
2018-04-30T08:54:04.948Z,12620
2018-04-30T08:54:45.472Z,11172
2018-04-30T08:55:26.008Z,12996
2018-04-30T08:56:06.771Z,78144
2018-04-30T08:56:47.307Z,25024
2018-04-30T08:57:27.847Z,18080
2018-04-30T08:58:08.390Z,13356
2018-04-30T08:58:48.986Z,12100
2018-04-30T08:59:29.470Z,13528
2018-04-30T09:00:10.014Z,16704
2018-04-30T09:00:50.564Z,19168
2018-04-30T09:01:31.102Z,17184
2018-04-30T09:02:11.654Z,52000
2018-04-30T09:02:52.178Z,13952
2018-04-30T09:03:32.733Z,10452
2018-04-30T09:04:13.268Z,9400
2018-04-30T09:04:53.824Z,12644
2018-04-30T09:05:34.360Z,10540
2018-04-30T09:06:15.039Z,7804
2018-04-30T09:06:55.485Z,8280
2018-04-30T09:07:36.030Z,13028
2018-04-30T09:08:17.190Z,24128
2018-04-30T09:08:57.737Z,17824
2018-04-30T09:09:38.291Z,9156
2018-04-30T09:10:18.810Z,7224
2018-04-30T09:10:59.355Z,8036
2018-04-30T09:11:39.885Z,10500
2018-04-30T09:12:20.429Z,10432
2018-04-30T09:13:00.955Z,9184
2018-04-30T09:13:41.487Z,44736
2018-04-30T09:14:22.019Z,102720
2018-04-30T09:15:02.613Z,99328
2018-04-30T09:15:43.075Z,91808
2018-04-30T09:16:23.616Z,91904
2018-04-30T09:17:04.168Z,32352
2018-04-30T09:17:45.490Z,41664
2018-04-30T09:18:25.220Z,95904
2018-04-30T09:19:05.759Z,14480
2018-04-30T09:19:46.292Z,81728
2018-04-30T09:20:26.828Z,27584
2018-04-30T09:21:07.367Z,13900
2018-04-30T09:21:47.892Z,12052
2018-04-30T09:22:28.426Z,22016
2018-04-30T09:23:08.980Z,18752
2018-04-30T09:23:49.615Z,46592
2018-04-30T09:24:30.086Z,10808
2018-04-30T09:25:10.616Z,14272
2018-04-30T09:25:51.155Z,79744
2018-04-30T09:26:31.694Z,17920
2018-04-30T09:27:12.241Z,40096